createdAt,value
2019-02-26T00:01:21.652Z,24.10
2019-02-26T00:03:48.811Z,18.23
2019-02-26T00:06:16.062Z,14.83
2019-02-26T00:08:43.031Z,27.40
2019-02-26T00:11:10.825Z,23.17
2019-02-26T00:13:37.178Z,15.80
2019-02-26T00:16:07.683Z,15.50
2019-02-26T00:18:31.733Z,23.17
2019-02-26T00:20:59.018Z,20.17
2019-02-26T00:23:27.905Z,13.27
2019-02-26T00:25:54.318Z,20.67
2019-02-26T00:28:22.070Z,14.53
2019-02-26T00:30:48.327Z,15.60
2019-02-26T00:33:14.525Z,13.33
2019-02-26T00:35:41.650Z,10.47
2019-02-26T00:38:09.384Z,13.30
2019-02-26T00:40:38.769Z,14.07
2019-02-26T00:43:06.552Z,12.07
2019-02-26T00:45:34.029Z,7.70
2019-02-26T00:48:00.874Z,8.93
2019-02-26T00:50:28.155Z,8.87
2019-02-26T00:52:57.071Z,8.40
2019-02-26T00:55:27.310Z,11.77
2019-02-26T00:57:51.352Z,13.33
2019-02-26T01:00:17.507Z,11.03
2019-02-26T01:02:44.019Z,8.50
2019-02-26T01:05:13.168Z,9.40
2019-02-26T01:07:41.902Z,9.80
2019-02-26T01:10:09.326Z,7.63
2019-02-26T01:12:37.520Z,8.67
2019-02-26T01:15:09.321Z,10.13
2019-02-26T01:17:35.818Z,8.13
2019-02-26T01:20:06.995Z,10.07
2019-02-26T01:22:35.430Z,13.20
2019-02-26T01:25:02.668Z,10.53
2019-02-26T01:27:28.939Z,8.57
2019-02-26T01:29:55.922Z,8.27
2019-02-26T01:32:24.904Z,7.03
2019-02-26T01:34:51.232Z,9.47
2019-02-26T01:37:17.390Z,11.50
2019-02-26T01:39:44.817Z,7.27
2019-02-26T01:42:13.350Z,9.20
2019-02-26T01:44:41.714Z,6.43
2019-02-26T01:47:08.276Z,9.63
2019-02-26T01:49:34.442Z,7.57
2019-02-26T01:52:00.599Z,7.50
2019-02-26T01:54:28.301Z,6.70
2019-02-26T01:56:54.838Z,7.90
2019-02-26T01:59:20.999Z,12.00
2019-02-26T02:01:49.687Z,10.27
2019-02-26T02:04:17.062Z,10.73
2019-02-26T02:06:43.322Z,8.23
2019-02-26T02:09:13.345Z,9.83
2019-02-26T02:11:38.653Z,9.93
2019-02-26T02:14:06.513Z,11.60
2019-02-26T02:16:33.929Z,11.13
2019-02-26T02:19:00.101Z,13.37
2019-02-26T02:21:29.080Z,10.57
2019-02-26T02:23:55.319Z,9.57
2019-02-26T02:26:21.579Z,14.43
2019-02-26T02:28:47.732Z,9.57
2019-02-26T02:31:13.918Z,11.53
2019-02-26T02:33:40.080Z,10.43
2019-02-26T02:36:06.239Z,6.80
2019-02-26T02:38:36.539Z,7.37
2019-02-26T02:41:00.614Z,6.80
2019-02-26T02:43:26.777Z,8.60
2019-02-26T02:45:55.541Z,7.03
2019-02-26T02:48:21.025Z,7.47
2019-02-26T02:50:47.586Z,9.30
2019-02-26T02:53:13.863Z,8.93
2019-02-26T02:55:41.088Z,14.73
2019-02-26T02:58:08.239Z,12.80
2019-02-26T03:00:34.607Z,11.27
2019-02-26T03:03:00.773Z,18.23
2019-02-26T03:05:27.050Z,16.63
2019-02-26T03:07:54.080Z,8.83
2019-02-26T03:10:26.060Z,9.07
2019-02-26T03:12:53.881Z,9.20
2019-02-26T03:15:17.451Z,8.20
2019-02-26T03:17:43.607Z,9.20
2019-02-26T03:20:13.568Z,14.43
2019-02-26T03:22:43.183Z,8.87
2019-02-26T03:25:10.770Z,9.33
2019-02-26T03:27:39.906Z,8.57
2019-02-26T03:30:26.208Z,7.83
2019-02-26T03:32:47.282Z,8.13
2019-02-26T03:35:16.148Z,7.30
2019-02-26T03:37:41.963Z,7.17
2019-02-26T03:40:10.430Z,6.10
2019-02-26T03:42:39.047Z,6.40
2019-02-26T03:45:07.970Z,10.47
2019-02-26T03:47:34.124Z,6.80
2019-02-26T03:50:00.278Z,8.73
2019-02-26T03:52:28.942Z,7.90
2019-02-26T03:54:54.541Z,7.50
2019-02-26T03:57:22.704Z,7.07
2019-02-26T03:59:48.802Z,7.43
2019-02-26T04:02:17.329Z,7.97
2019-02-26T04:04:43.149Z,10.23
2019-02-26T04:07:10.611Z,6.83
2019-02-26T04:09:39.306Z,9.37
2019-02-26T04:12:07.465Z,6.17
2019-02-26T04:14:33.204Z,9.70
2019-02-26T04:17:01.501Z,6.23
2019-02-26T04:19:27.426Z,8.33
2019-02-26T04:22:26.410Z,10.13
2019-02-26T04:24:55.995Z,9.70
2019-02-26T04:27:57.027Z,7.00
2019-02-26T04:30:44.636Z,11.43
2019-02-26T04:33:40.739Z,9.23
2019-02-26T04:36:23.317Z,7.70
2019-02-26T04:39:28.101Z,10.57
2019-02-26T04:42:32.516Z,6.93
2019-02-26T04:45:08.935Z,12.47
2019-02-26T04:47:41.874Z,4.93
2019-02-26T04:50:08.949Z,7.40
2019-02-26T04:52:37.770Z,7.87
2019-02-26T04:55:05.987Z,15.37
2019-02-26T04:57:32.236Z,12.57
2019-02-26T05:00:01.056Z,15.80
2019-02-26T05:02:26.790Z,10.60
2019-02-26T05:04:52.942Z,7.37
2019-02-26T05:07:24.197Z,10.60
2019-02-26T05:09:53.125Z,8.93
2019-02-26T05:12:18.502Z,10.03
2019-02-26T05:14:44.690Z,9.47
2019-02-26T05:17:10.948Z,11.70
2019-02-26T05:19:39.489Z,13.03
2019-02-26T05:22:07.062Z,12.33
2019-02-26T05:24:33.281Z,20.37
2019-02-26T05:27:01.261Z,13.57
2019-02-26T05:29:27.491Z,21.03
2019-02-26T05:31:55.665Z,11.13
2019-02-26T05:34:23.272Z,18.13
2019-02-26T05:36:49.897Z,29.13
2019-02-26T05:39:18.801Z,14.27
2019-02-26T05:41:44.129Z,10.20
2019-02-26T05:44:10.795Z,10.20
2019-02-26T05:46:37.182Z,14.27
2019-02-26T05:49:05.561Z,23.37
2019-02-26T05:51:32.644Z,28.47
2019-02-26T05:54:02.539Z,43.13
2019-02-26T05:56:27.578Z,27.97
2019-02-26T05:58:53.872Z,31.17
2019-02-26T06:01:22.529Z,25.70
2019-02-26T06:03:49.720Z,32.50
2019-02-26T06:06:16.423Z,40.03
2019-02-26T06:08:42.582Z,40.30
2019-02-26T06:11:08.754Z,24.97
2019-02-26T06:13:37.714Z,15.23
2019-02-26T06:16:05.382Z,16.90
2019-02-26T06:18:31.062Z,14.90
2019-02-26T06:20:58.636Z,10.57
2019-02-26T06:23:28.188Z,11.20
2019-02-26T06:25:56.013Z,13.20
2019-02-26T06:28:22.524Z,13.53
2019-02-26T06:30:48.826Z,8.90
2019-02-26T06:33:16.379Z,13.53
2019-02-26T06:35:42.920Z,14.90
2019-02-26T06:38:11.099Z,22.90
2019-02-26T06:40:39.294Z,39.00
2019-02-26T06:43:05.410Z,26.70
2019-02-26T06:45:31.576Z,18.53
2019-02-26T06:47:59.606Z,35.60
2019-02-26T06:50:25.914Z,15.13
2019-02-26T06:52:52.068Z,16.17
2019-02-26T06:55:18.254Z,13.97
2019-02-26T06:57:47.238Z,8.10
2019-02-26T07:00:16.238Z,12.10
2019-02-26T07:02:45.463Z,14.93
2019-02-26T07:05:12.487Z,22.43
2019-02-26T07:07:38.754Z,22.43
2019-02-26T07:10:13.748Z,12.63
2019-02-26T07:12:41.206Z,19.83
2019-02-26T07:15:13.599Z,13.17
2019-02-26T07:17:41.161Z,10.47
2019-02-26T07:20:08.879Z,23.00
2019-02-26T07:22:35.029Z,16.70
2019-02-26T07:25:01.201Z,10.87
2019-02-26T07:27:28.883Z,14.07
2019-02-26T07:29:56.437Z,12.27
2019-02-26T07:32:24.547Z,12.50
2019-02-26T07:34:52.113Z,12.27
2019-02-26T07:37:18.586Z,12.90
2019-02-26T07:39:46.698Z,10.67
2019-02-26T07:42:14.639Z,9.83
2019-02-26T07:44:40.923Z,8.83
2019-02-26T07:47:11.149Z,19.10
2019-02-26T07:49:37.192Z,11.73
2019-02-26T07:52:06.653Z,6.60
2019-02-26T07:54:33.325Z,12.83
2019-02-26T07:57:02.105Z,9.10
2019-02-26T07:59:28.093Z,13.03
2019-02-26T08:01:55.742Z,12.00
2019-02-26T08:04:21.933Z,10.50
2019-02-26T08:06:48.191Z,13.97
2019-02-26T08:09:16.508Z,17.97
2019-02-26T08:11:45.838Z,14.43
2019-02-26T08:14:10.499Z,16.87
2019-02-26T08:16:36.657Z,12.57
2019-02-26T08:19:02.959Z,13.23
2019-02-26T08:21:29.766Z,13.77
2019-02-26T08:23:55.968Z,11.47
2019-02-26T08:26:24.261Z,33.20
2019-02-26T08:28:50.323Z,12.77
2019-02-26T08:31:18.537Z,12.27
2019-02-26T08:33:48.940Z,12.07
2019-02-26T08:36:14.192Z,25.03
2019-02-26T08:38:40.620Z,17.23
2019-02-26T08:41:06.819Z,21.20
2019-02-26T08:43:33.070Z,39.43
2019-02-26T08:45:59.227Z,18.93
2019-02-26T08:48:27.000Z,13.53
2019-02-26T08:50:55.654Z,9.50
2019-02-26T08:53:24.271Z,17.23
2019-02-26T08:55:51.523Z,10.00
2019-02-26T08:58:18.201Z,13.23
2019-02-26T09:00:44.379Z,12.67
2019-02-26T09:03:11.417Z,13.40
2019-02-26T09:05:38.645Z,12.97
2019-02-26T09:08:05.958Z,10.80
2019-02-26T09:10:33.007Z,8.40
2019-02-26T09:12:59.177Z,11.23
2019-02-26T09:15:25.439Z,9.10
2019-02-26T09:17:51.816Z,13.40
2019-02-26T09:20:19.373Z,6.57
2019-02-26T09:23:16.404Z,10.40
2019-02-26T09:26:05.272Z,8.90
2019-02-26T09:31:09.072Z,9.00
2019-02-26T09:33:37.598Z,8.00
2019-02-26T09:36:03.083Z,11.47
2019-02-26T09:41:01.068Z,9.70
2019-02-26T09:43:27.227Z,10.87
2019-02-26T09:46:18.783Z,6.43
2019-02-26T09:48:45.309Z,13.07
2019-02-26T09:51:14.270Z,12.73
2019-02-26T09:53:40.409Z,9.60
2019-02-26T09:56:06.976Z,9.37
2019-02-26T09:58:33.138Z,11.90
2019-02-26T10:00:59.327Z,12.57
2019-02-26T10:03:26.782Z,19.17
2019-02-26T10:05:56.003Z,15.40
2019-02-26T10:08:22.328Z,12.17
2019-02-26T10:10:51.947Z,14.10
2019-02-26T10:13:18.732Z,13.23
2019-02-26T10:15:45.985Z,7.97
2019-02-26T10:18:12.513Z,12.87
2019-02-26T10:20:38.675Z,14.00
2019-02-26T10:23:06.267Z,15.57
2019-02-26T10:25:35.027Z,11.10
2019-02-26T10:28:05.738Z,12.87
2019-02-26T10:30:31.409Z,11.70
2019-02-26T10:33:01.786Z,13.77
2019-02-26T10:35:33.203Z,12.03
2019-02-26T10:38:02.141Z,18.50
2019-02-26T10:40:34.827Z,14.07
2019-02-26T10:42:54.231Z,15.40
2019-02-26T10:45:28.593Z,12.00
2019-02-26T10:47:56.649Z,13.27
2019-02-26T10:50:24.904Z,15.73
2019-02-26T10:52:52.789Z,14.73
2019-02-26T10:55:21.936Z,17.57
2019-02-26T10:57:47.787Z,13.87
2019-02-26T11:00:22.569Z,13.53
2019-02-26T11:02:50.964Z,13.70
2019-02-26T11:05:20.869Z,14.20
2019-02-26T11:07:45.209Z,11.47
2019-02-26T11:10:14.676Z,12.00
2019-02-26T11:12:40.663Z,8.77
2019-02-26T11:15:15.701Z,11.93
2019-02-26T11:17:43.117Z,11.97
2019-02-26T11:20:12.630Z,11.80
2019-02-26T11:22:41.715Z,14.27
2019-02-26T11:25:09.533Z,11.07
2019-02-26T11:27:37.864Z,8.83
2019-02-26T11:30:07.601Z,11.90
2019-02-26T11:32:37.317Z,13.17
2019-02-26T11:35:02.748Z,12.43
2019-02-26T11:37:29.534Z,14.03
2019-02-26T11:39:57.688Z,6.47
2019-02-26T11:42:26.175Z,16.60
2019-02-26T11:44:53.311Z,16.80
2019-02-26T11:47:20.614Z,12.50
2019-02-26T11:49:46.956Z,12.47
2019-02-26T11:52:13.264Z,12.67
2019-02-26T11:54:40.280Z,14.10
2019-02-26T11:57:10.299Z,26.93
2019-02-26T11:59:38.080Z,11.67
2019-02-26T12:02:06.270Z,4.53
2019-02-26T12:04:32.449Z,15.70
2019-02-26T12:07:01.034Z,13.37
2019-02-26T12:09:32.486Z,12.30
2019-02-26T12:11:58.500Z,12.37
2019-02-26T12:14:25.715Z,16.87
2019-02-26T12:16:51.877Z,11.70
2019-02-26T12:19:18.139Z,13.97
2019-02-26T12:21:44.335Z,17.23
2019-02-26T12:24:12.577Z,13.20
2019-02-26T12:26:38.702Z,10.93
2019-02-26T12:29:04.889Z,12.50
2019-02-26T12:31:33.382Z,14.07
2019-02-26T12:33:59.115Z,14.00
2019-02-26T12:36:26.605Z,12.43
2019-02-26T12:38:54.271Z,12.87
2019-02-26T12:41:21.487Z,12.87
2019-02-26T12:43:47.677Z,13.53
2019-02-26T12:46:13.844Z,13.83
2019-02-26T12:48:41.865Z,14.50
2019-02-26T12:51:08.264Z,13.30
2019-02-26T12:53:44.081Z,14.32
2019-02-26T12:56:11.592Z,14.43
2019-02-26T12:58:38.210Z,15.10
2019-02-26T13:01:05.810Z,15.17
2019-02-26T13:03:35.203Z,17.13
2019-02-26T13:06:00.067Z,15.90
2019-02-26T13:08:26.250Z,14.40
2019-02-26T13:10:56.146Z,19.13
2019-02-26T13:13:20.614Z,12.97
2019-02-26T13:15:46.873Z,14.57
2019-02-26T13:18:13.074Z,14.70
2019-02-26T13:20:39.338Z,16.03
2019-02-26T13:23:17.074Z,29.87
2019-02-26T13:25:33.616Z,14.57
2019-02-26T13:27:59.779Z,16.20
2019-02-26T13:30:27.749Z,91.50
2019-02-26T13:32:58.119Z,17.67
2019-02-26T13:35:22.599Z,17.77
2019-02-26T13:37:50.972Z,23.37
2019-02-26T13:40:20.092Z,12.63
2019-02-26T13:42:49.932Z,17.70
2019-02-26T13:45:16.650Z,15.63
2019-02-26T13:47:43.044Z,18.37
2019-02-26T13:50:12.205Z,16.10
2019-02-26T13:52:38.367Z,13.33
2019-02-26T13:55:07.065Z,13.77
2019-02-26T13:57:35.147Z,12.23
2019-02-26T14:00:02.501Z,15.13
2019-02-26T14:02:28.790Z,26.53
2019-02-26T14:04:54.983Z,16.90
2019-02-26T14:07:21.260Z,17.43
2019-02-26T14:09:47.458Z,15.47
2019-02-26T14:12:13.923Z,18.23
2019-02-26T14:14:40.105Z,18.20
2019-02-26T14:17:06.290Z,19.80
2019-02-26T14:19:32.460Z,18.80
2019-02-26T14:21:58.735Z,17.17
2019-02-26T14:24:27.688Z,20.43
2019-02-26T14:26:53.844Z,17.57
2019-02-26T14:29:20.012Z,18.13
2019-02-26T14:31:46.307Z,17.90
2019-02-26T14:34:12.487Z,25.43
2019-02-26T14:36:40.544Z,26.73
2019-02-26T14:39:07.140Z,20.93
2019-02-26T14:41:33.302Z,18.37
2019-02-26T14:43:59.573Z,20.23
2019-02-26T14:46:25.741Z,25.47
2019-02-26T14:48:51.953Z,23.70
2019-02-26T14:51:20.033Z,32.07
2019-02-26T14:53:46.455Z,22.03
2019-02-26T14:56:12.686Z,25.20
2019-02-26T14:58:38.863Z,20.77
2019-02-26T15:01:05.072Z,20.03
2019-02-26T15:03:31.230Z,24.57
2019-02-26T15:05:57.390Z,24.10
2019-02-26T15:08:23.979Z,18.67
2019-02-26T15:10:50.137Z,26.93
2019-02-26T15:13:16.460Z,26.33
2019-02-26T15:15:42.684Z,21.00
2019-02-26T15:18:08.857Z,26.50
2019-02-26T15:20:35.137Z,19.60
2019-02-26T15:23:01.521Z,21.97
2019-02-26T15:25:31.331Z,29.57
2019-02-26T15:28:04.616Z,22.77
2019-02-26T15:30:25.681Z,21.37
2019-02-26T15:32:51.955Z,26.13
2019-02-26T15:35:18.223Z,22.40
2019-02-26T15:37:44.497Z,19.77
2019-02-26T15:40:18.849Z,22.43
2019-02-26T15:42:45.012Z,30.97
2019-02-26T15:45:24.146Z,25.80
2019-02-26T15:47:50.596Z,28.77
2019-02-26T15:50:20.500Z,18.20
2019-02-26T15:52:46.807Z,24.03
2019-02-26T15:55:21.768Z,28.80
2019-02-26T15:57:49.761Z,24.97
2019-02-26T16:00:21.421Z,31.10
2019-02-26T16:02:48.885Z,29.77
2019-02-26T16:05:15.615Z,35.67
2019-02-26T16:07:41.935Z,30.97
2019-02-26T16:10:09.692Z,30.77
2019-02-26T16:12:36.057Z,43.20
2019-02-26T16:15:03.366Z,33.47
2019-02-26T16:17:29.523Z,39.03
2019-02-26T16:19:55.786Z,29.27
2019-02-26T16:22:21.978Z,46.97
2019-02-26T16:24:48.131Z,61.13
2019-02-26T16:27:14.619Z,33.70
2019-02-26T16:29:40.923Z,26.30
2019-02-26T16:32:07.186Z,29.60
2019-02-26T16:34:35.089Z,31.97
2019-02-26T16:37:03.323Z,31.57
2019-02-26T16:39:29.606Z,59.23
2019-02-26T16:41:55.872Z,39.47
2019-02-26T16:44:22.550Z,37.23
2019-02-26T16:46:50.289Z,37.63
2019-02-26T16:49:16.557Z,41.33
2019-02-26T16:51:42.755Z,34.67
2019-02-26T16:54:09.354Z,42.53
2019-02-26T16:56:35.708Z,38.10
2019-02-26T16:59:01.915Z,48.20
2019-02-26T17:01:28.076Z,35.67
2019-02-26T17:03:54.240Z,34.73
2019-02-26T17:06:21.117Z,32.63
2019-02-26T17:08:47.862Z,43.07
2019-02-26T17:11:14.260Z,38.23
2019-02-26T17:13:42.695Z,17.80
2019-02-26T17:16:08.621Z,35.93
2019-02-26T17:18:34.878Z,59.83
2019-02-26T17:21:01.190Z,37.03
2019-02-26T17:23:27.336Z,37.07
2019-02-26T17:25:53.501Z,38.73
2019-02-26T17:28:19.695Z,35.23
2019-02-26T17:30:45.860Z,44.90
2019-02-26T17:33:14.459Z,40.47
2019-02-26T17:35:40.113Z,36.57
2019-02-26T17:38:06.294Z,34.53
2019-02-26T17:40:33.889Z,31.10
2019-02-26T17:43:00.552Z,31.87
2019-02-26T17:45:31.312Z,30.47
2019-02-26T17:47:57.618Z,21.80
2019-02-26T17:50:36.598Z,34.07
2019-02-26T17:53:02.751Z,32.17
2019-02-26T17:55:28.908Z,28.97
2019-02-26T17:57:55.200Z,40.03
2019-02-26T18:00:24.163Z,31.70
2019-02-26T18:02:50.340Z,31.20
2019-02-26T18:05:16.525Z,33.73
2019-02-26T18:07:42.677Z,38.20
2019-02-26T18:10:12.914Z,31.50
2019-02-26T18:12:39.963Z,32.30
2019-02-26T18:15:09.992Z,32.33
2019-02-26T18:17:36.256Z,31.73
2019-02-26T18:20:04.743Z,30.10
2019-02-26T18:22:31.820Z,28.83
2019-02-26T18:24:57.980Z,36.70
2019-02-26T18:27:24.192Z,39.57
2019-02-26T18:29:50.355Z,31.57
2019-02-26T18:32:16.513Z,29.67
2019-02-26T18:34:42.703Z,60.27
2019-02-26T18:37:08.974Z,28.10
2019-02-26T18:39:35.230Z,30.13
2019-02-26T18:42:01.422Z,29.77
2019-02-26T18:44:27.599Z,29.40
2019-02-26T18:46:53.780Z,29.67
2019-02-26T18:49:21.824Z,26.00
2019-02-26T18:51:49.714Z,33.77
2019-02-26T18:54:17.729Z,25.00
2019-02-26T18:56:44.388Z,17.90
2019-02-26T18:59:10.536Z,35.20
2019-02-26T19:01:36.815Z,26.93
2019-02-26T19:04:03.116Z,29.67
2019-02-26T19:06:30.314Z,29.20
2019-02-26T19:08:56.571Z,28.87
2019-02-26T19:11:25.430Z,35.33
2019-02-26T19:13:50.838Z,37.97
2019-02-26T19:16:20.441Z,33.37
2019-02-26T19:18:45.194Z,32.87
2019-02-26T19:21:11.351Z,31.33
2019-02-26T19:23:37.516Z,33.43
2019-02-26T19:26:03.712Z,28.37
2019-02-26T19:28:29.871Z,29.80
2019-02-26T19:30:56.029Z,39.30
2019-02-26T19:33:22.526Z,38.33
2019-02-26T19:35:48.881Z,30.53
2019-02-26T19:38:15.038Z,45.23
2019-02-26T19:40:47.066Z,51.67
2019-02-26T19:43:13.327Z,30.90
2019-02-26T19:45:43.892Z,35.17
2019-02-26T19:48:07.690Z,28.97
2019-02-26T19:50:34.879Z,34.43
2019-02-26T19:53:02.498Z,39.77
2019-02-26T19:55:35.476Z,38.03
2019-02-26T19:58:04.014Z,36.70
2019-02-26T20:00:29.977Z,43.27
2019-02-26T20:02:56.176Z,40.90
2019-02-26T20:05:24.401Z,36.13
2019-02-26T20:07:50.658Z,35.53
2019-02-26T20:10:17.547Z,32.23
2019-02-26T20:12:43.716Z,29.10
2019-02-26T20:15:13.195Z,30.57
2019-02-26T20:17:39.677Z,34.83
2019-02-26T20:20:11.679Z,27.43
2019-02-26T20:22:37.837Z,31.67
2019-02-26T20:25:07.638Z,28.73
2019-02-26T20:27:35.812Z,29.73
2019-02-26T20:30:02.753Z,37.17
2019-02-26T20:32:31.046Z,32.53
2019-02-26T20:34:57.112Z,28.03
2019-02-26T20:37:24.468Z,36.47
2019-02-26T20:39:51.287Z,29.87
2019-02-26T20:42:17.446Z,31.23
2019-02-26T20:44:45.474Z,31.67
2019-02-26T20:47:11.709Z,31.80
2019-02-26T20:49:37.873Z,34.80
2019-02-26T20:52:04.099Z,31.97
2019-02-26T20:54:30.290Z,41.40
2019-02-26T20:56:56.451Z,32.97
2019-02-26T20:59:22.607Z,38.53
2019-02-26T21:01:49.552Z,35.97
2019-02-26T21:04:16.067Z,42.40
2019-02-26T21:06:42.223Z,31.50
2019-02-26T21:09:08.422Z,31.60
2019-02-26T21:11:34.571Z,33.70
2019-02-26T21:14:00.841Z,38.33
2019-02-26T21:16:27.040Z,29.40
2019-02-26T21:18:53.192Z,33.83
2019-02-26T21:21:19.349Z,40.83
2019-02-26T21:23:45.644Z,40.97
2019-02-26T21:26:11.800Z,28.50
2019-02-26T21:28:38.076Z,33.47
2019-02-26T21:31:04.269Z,26.53
2019-02-26T21:33:31.281Z,24.97
2019-02-26T21:35:57.696Z,31.10
2019-02-26T21:38:23.889Z,29.47
2019-02-26T21:40:52.055Z,30.10
2019-02-26T21:43:18.113Z,31.40
2019-02-26T21:45:44.592Z,31.70
2019-02-26T21:48:10.959Z,26.53
2019-02-26T21:50:37.122Z,28.30
2019-02-26T21:53:04.161Z,33.63
2019-02-26T21:55:33.756Z,32.47
2019-02-26T21:57:58.472Z,36.20
2019-02-26T22:00:24.674Z,31.37
2019-02-26T22:02:52.456Z,34.07
2019-02-26T22:05:18.940Z,49.27
2019-02-26T22:07:45.126Z,35.37
2019-02-26T22:10:16.732Z,37.53
2019-02-26T22:12:42.885Z,30.00
2019-02-26T22:15:14.616Z,35.90
2019-02-26T22:17:40.790Z,30.80
2019-02-26T22:20:21.654Z,29.93
2019-02-26T22:22:37.926Z,33.07
2019-02-26T22:25:09.687Z,41.73
2019-02-26T22:27:33.738Z,30.00
2019-02-26T22:30:00.755Z,33.33
2019-02-26T22:32:26.908Z,36.53
2019-02-26T22:34:53.556Z,37.70
2019-02-26T22:37:20.553Z,38.97
2019-02-26T22:39:47.206Z,37.93
2019-02-26T22:42:13.365Z,47.90
2019-02-26T22:44:39.555Z,41.20
2019-02-26T22:47:07.054Z,43.23
2019-02-26T22:49:33.782Z,28.47
2019-02-26T22:51:59.972Z,35.77
2019-02-26T22:54:26.232Z,31.73
2019-02-26T22:56:56.692Z,31.90
2019-02-26T22:59:23.005Z,32.43
2019-02-26T23:01:49.254Z,32.27
2019-02-26T23:04:19.272Z,37.33
2019-02-26T23:06:44.000Z,33.73
2019-02-26T23:09:12.960Z,37.93
2019-02-26T23:11:39.230Z,36.97
2019-02-26T23:14:05.829Z,39.07
2019-02-26T23:16:33.691Z,39.17
2019-02-26T23:19:01.371Z,51.50
2019-02-26T23:21:28.151Z,48.60
2019-02-26T23:23:55.348Z,43.47
2019-02-26T23:26:21.686Z,38.60
2019-02-26T23:28:47.983Z,31.93
2019-02-26T23:31:15.347Z,40.27
2019-02-26T23:33:41.609Z,28.07
2019-02-26T23:36:08.101Z,30.67
2019-02-26T23:38:34.251Z,33.63
2019-02-26T23:41:00.911Z,21.00
2019-02-26T23:43:27.414Z,25.83
2019-02-26T23:45:56.845Z,28.33
2019-02-26T23:48:21.623Z,31.27
2019-02-26T23:50:47.965Z,36.97
2019-02-26T23:53:14.271Z,33.60
2019-02-26T23:55:40.551Z,32.87
2019-02-26T23:58:06.755Z,36.83
